createdAt,value
2019-01-11T00:01:11.445Z,23.43
2019-01-11T00:03:43.094Z,23.53
2019-01-11T00:06:13.427Z,21.43
2019-01-11T00:08:43.824Z,22.33
2019-01-11T00:11:14.151Z,20.53
2019-01-11T00:13:44.547Z,18.53
2019-01-11T00:16:14.868Z,18.87
2019-01-11T00:18:45.255Z,19.97
2019-01-11T00:21:15.603Z,20.33
2019-01-11T00:23:45.979Z,17.13
2019-01-11T00:26:16.302Z,18.43
2019-01-11T00:28:46.724Z,17.83
2019-01-11T00:31:17.143Z,17.63
2019-01-11T00:33:47.487Z,16.80
2019-01-11T00:36:17.822Z,16.37
2019-01-11T00:38:48.175Z,17.10
2019-01-11T00:41:18.490Z,17.00
2019-01-11T00:43:48.852Z,17.60
2019-01-11T00:46:19.166Z,18.27
2019-01-11T00:49:01.209Z,19.03
2019-01-11T00:51:31.523Z,18.87
2019-01-11T00:54:01.895Z,19.67
2019-01-11T00:56:32.247Z,19.67
2019-01-11T00:59:02.602Z,19.30
2019-01-11T01:01:32.927Z,20.00
2019-01-11T01:04:03.386Z,18.73
2019-01-11T01:06:34.888Z,20.43
2019-01-11T01:09:08.735Z,19.90
2019-01-11T01:11:39.106Z,19.83
2019-01-11T01:14:09.473Z,21.40
2019-01-11T01:16:40.007Z,20.57
2019-01-11T01:19:10.400Z,21.10
2019-01-11T01:21:40.742Z,19.33
2019-01-11T01:24:11.120Z,19.17
2019-01-11T01:26:41.494Z,18.80
2019-01-11T01:29:11.842Z,18.67
2019-01-11T01:31:42.755Z,19.57
2019-01-11T01:34:13.124Z,19.70
2019-01-11T01:36:43.449Z,18.33
2019-01-11T01:39:13.805Z,19.03
2019-01-11T01:41:44.210Z,18.97
2019-01-11T01:44:15.622Z,18.43
2019-01-11T01:46:45.937Z,19.17
2019-01-11T01:49:16.309Z,19.10
2019-01-11T01:51:46.679Z,19.60
2019-01-11T01:54:17.394Z,19.43
2019-01-11T01:56:47.732Z,23.17
2019-01-11T01:59:18.094Z,23.00
2019-01-11T02:01:48.545Z,20.97
2019-01-11T02:04:18.919Z,20.20
2019-01-11T02:06:49.554Z,21.00
2019-01-11T02:09:20.080Z,21.30
2019-01-11T02:11:50.695Z,20.87
2019-01-11T02:14:21.049Z,23.43
2019-01-11T02:16:51.394Z,21.77
2019-01-11T02:19:21.983Z,23.37
2019-01-11T02:21:52.321Z,22.90
2019-01-11T02:24:22.972Z,21.63
2019-01-11T02:26:53.717Z,22.70
2019-01-11T02:29:24.412Z,21.60
2019-01-11T02:31:54.920Z,22.27
2019-01-11T02:34:29.010Z,22.90
2019-01-11T02:36:59.363Z,22.10
2019-01-11T02:39:29.727Z,21.80
2019-01-11T02:42:00.175Z,21.97
2019-01-11T02:44:30.594Z,22.23
2019-01-11T02:47:01.133Z,21.30
2019-01-11T02:49:31.620Z,21.73
2019-01-11T02:52:02.249Z,21.30
2019-01-11T02:54:32.768Z,21.87
2019-01-11T02:57:03.079Z,22.23
2019-01-11T02:59:33.459Z,22.37
2019-01-11T03:02:03.803Z,21.47
2019-01-11T03:04:34.260Z,21.70
2019-01-11T03:07:04.728Z,22.57
2019-01-11T03:09:35.112Z,22.63
2019-01-11T03:12:05.798Z,22.63
2019-01-11T03:14:36.227Z,22.37
2019-01-11T03:17:06.578Z,22.17
2019-01-11T03:19:37.019Z,23.03
2019-01-11T03:22:07.358Z,22.90
2019-01-11T03:24:37.720Z,21.90
2019-01-11T03:27:08.049Z,22.87
2019-01-11T03:29:38.413Z,22.03
2019-01-11T03:32:08.754Z,22.67
2019-01-11T03:34:52.383Z,21.47
2019-01-11T03:37:22.739Z,22.20
2019-01-11T03:39:53.408Z,21.47
2019-01-11T03:42:23.764Z,22.27
2019-01-11T03:44:54.122Z,21.80
2019-01-11T03:47:24.469Z,21.57
2019-01-11T03:49:55.180Z,22.33
2019-01-11T03:52:25.662Z,22.27
2019-01-11T03:54:56.100Z,22.07
2019-01-11T03:57:26.496Z,21.60
2019-01-11T03:59:56.877Z,21.53
2019-01-11T04:02:27.202Z,21.90
2019-01-11T04:04:57.575Z,22.60
2019-01-11T04:07:28.023Z,22.97
2019-01-11T04:09:58.414Z,22.60
2019-01-11T04:12:28.773Z,21.43
2019-01-11T04:14:59.145Z,22.30
2019-01-11T04:17:29.501Z,22.63
2019-01-11T04:20:02.261Z,21.43
2019-01-11T04:22:33.451Z,22.33
2019-01-11T04:25:05.349Z,21.83
2019-01-11T04:27:36.674Z,21.40
2019-01-11T04:30:12.104Z,21.57
2019-01-11T04:32:42.438Z,21.73
2019-01-11T04:35:12.915Z,22.10
2019-01-11T04:37:43.713Z,22.50
2019-01-11T04:40:16.071Z,21.83
2019-01-11T04:42:46.406Z,22.23
2019-01-11T04:45:16.773Z,22.87
2019-01-11T04:47:47.115Z,21.90
2019-01-11T04:50:19.047Z,24.00
2019-01-11T04:52:49.713Z,24.27
2019-01-11T04:55:20.098Z,26.13
2019-01-11T04:57:50.638Z,26.43
2019-01-11T05:00:22.472Z,25.63
2019-01-11T05:02:52.966Z,24.40
2019-01-11T05:05:23.391Z,25.50
2019-01-11T05:07:53.849Z,24.23
2019-01-11T05:10:24.422Z,26.27
2019-01-11T05:12:54.743Z,26.30
2019-01-11T05:15:25.188Z,25.73
2019-01-11T05:17:55.894Z,25.20
2019-01-11T05:20:26.526Z,25.23
2019-01-11T05:22:57.102Z,24.03
2019-01-11T05:25:28.590Z,25.23
2019-01-11T05:27:59.098Z,24.63
2019-01-11T05:30:29.410Z,25.37
2019-01-11T05:33:00.081Z,25.30
2019-01-11T05:35:30.466Z,23.87
2019-01-11T05:38:00.810Z,25.30
2019-01-11T05:40:31.186Z,24.50
2019-01-11T05:43:01.610Z,24.10
2019-01-11T05:45:35.552Z,24.63
2019-01-11T05:48:06.969Z,23.50
2019-01-11T05:50:37.348Z,23.30
2019-01-11T05:53:07.672Z,23.63
2019-01-11T05:55:51.916Z,23.37
2019-01-11T05:58:39.162Z,22.90
2019-01-11T06:01:09.578Z,22.13
2019-01-11T06:03:39.919Z,23.63
2019-01-11T06:06:13.386Z,23.50
2019-01-11T06:08:43.813Z,22.90
2019-01-11T06:11:14.148Z,23.40
2019-01-11T06:13:44.466Z,24.37
2019-01-11T06:16:15.013Z,23.57
2019-01-11T06:18:45.355Z,23.40
2019-01-11T06:21:15.718Z,23.47
2019-01-11T06:23:46.051Z,23.10
2019-01-11T06:26:16.406Z,23.57
2019-01-11T06:28:46.763Z,24.03
2019-01-11T06:31:17.187Z,24.03
2019-01-11T06:33:47.966Z,22.67
2019-01-11T06:36:19.401Z,24.07
2019-01-11T06:38:49.810Z,23.17
2019-01-11T06:41:20.364Z,23.23
2019-01-11T06:43:51.390Z,23.13
2019-01-11T06:46:23.462Z,23.03
2019-01-11T06:48:53.780Z,23.13
2019-01-11T06:51:24.152Z,24.33
2019-01-11T06:53:54.476Z,26.30
2019-01-11T06:56:24.840Z,24.27
2019-01-11T06:58:55.173Z,25.83
2019-01-11T07:01:25.535Z,23.47
2019-01-11T07:03:55.902Z,23.43
2019-01-11T07:06:26.255Z,23.80
2019-01-11T07:08:56.686Z,24.27
2019-01-11T07:11:28.107Z,22.30
2019-01-11T07:13:58.456Z,21.63
2019-01-11T07:16:28.809Z,22.23
2019-01-11T07:18:59.143Z,22.10
2019-01-11T07:21:29.484Z,21.73
2019-01-11T07:23:59.880Z,22.43
2019-01-11T07:26:30.270Z,21.17
2019-01-11T07:29:00.588Z,20.47
2019-01-11T07:31:33.349Z,18.93
2019-01-11T07:34:03.675Z,20.07
2019-01-11T07:36:36.082Z,19.23
2019-01-11T07:39:30.387Z,19.20
2019-01-11T07:42:00.951Z,20.23
2019-01-11T07:44:31.321Z,18.53
2019-01-11T07:47:03.971Z,17.00
2019-01-11T07:49:34.440Z,17.20
2019-01-11T07:52:04.906Z,18.10
2019-01-11T07:54:36.331Z,17.77
2019-01-11T07:57:06.757Z,18.13
2019-01-11T07:59:37.143Z,18.97
2019-01-11T08:02:07.471Z,20.83
2019-01-11T08:04:37.850Z,19.77
2019-01-11T08:07:08.272Z,21.93
2019-01-11T08:09:38.670Z,20.70
2019-01-11T08:12:09.019Z,21.93
2019-01-11T08:14:39.349Z,20.72
2019-01-11T08:17:09.704Z,21.37
2019-01-11T08:19:41.118Z,21.73
2019-01-11T08:22:20.982Z,20.90
2019-01-11T08:25:01.181Z,21.65
2019-01-11T08:27:31.601Z,21.73
2019-01-11T08:30:01.983Z,20.70
2019-01-11T08:32:32.623Z,23.02
2019-01-11T08:35:04.168Z,22.97
2019-01-11T08:37:35.074Z,22.22
2019-01-11T08:40:06.417Z,21.97
2019-01-11T08:42:36.774Z,23.23
2019-01-11T08:45:08.532Z,23.37
2019-01-11T08:47:39.082Z,21.47
2019-01-11T08:50:14.517Z,21.97
2019-01-11T08:52:47.014Z,24.33
2019-01-11T08:55:17.695Z,24.85
2019-01-11T08:57:48.662Z,24.67
2019-01-11T09:00:19.320Z,24.83
2019-01-11T09:02:49.715Z,24.57
2019-01-11T09:05:20.083Z,22.10
2019-01-11T09:07:50.486Z,21.00
2019-01-11T09:10:23.333Z,22.97
2019-01-11T09:12:52.815Z,21.60
2019-01-11T09:15:23.133Z,22.47
2019-01-11T09:18:02.713Z,22.00
2019-01-11T09:20:33.156Z,21.87
2019-01-11T09:23:03.526Z,22.23
2019-01-11T09:25:33.851Z,22.90
2019-01-11T09:28:04.280Z,23.17
2019-01-11T09:30:34.619Z,22.93
2019-01-11T09:33:05.691Z,22.40
2019-01-11T09:35:36.012Z,22.07
2019-01-11T09:38:06.376Z,22.33
2019-01-11T09:40:36.726Z,22.47
2019-01-11T09:43:07.086Z,22.73
2019-01-11T09:45:37.452Z,22.87
2019-01-11T09:48:07.783Z,23.27
2019-01-11T09:50:38.210Z,23.57
2019-01-11T09:53:08.531Z,27.90
2019-01-11T09:55:38.883Z,26.77
2019-01-11T09:58:09.199Z,25.40
2019-01-11T10:00:39.554Z,24.17
2019-01-11T10:03:11.626Z,20.97
2019-01-11T10:05:42.881Z,23.03
2019-01-11T10:08:13.301Z,22.93
2019-01-11T10:10:43.629Z,24.27
2019-01-11T10:13:13.988Z,23.50
2019-01-11T10:15:44.324Z,22.50
2019-01-11T10:18:14.676Z,22.80
2019-01-11T10:20:45.006Z,25.23
2019-01-11T10:23:15.521Z,27.00
2019-01-11T10:25:45.850Z,29.87
2019-01-11T10:28:28.173Z,23.97
2019-01-11T10:31:00.767Z,21.13
2019-01-11T10:33:35.942Z,23.50
2019-01-11T10:36:02.498Z,21.77
2019-01-11T10:38:33.306Z,21.37
2019-01-11T10:41:03.815Z,22.17
2019-01-11T10:43:34.675Z,25.27
2019-01-11T10:46:19.499Z,25.17
2019-01-11T10:48:49.844Z,26.83
2019-01-11T10:51:20.210Z,26.13
2019-01-11T10:53:50.541Z,26.67
2019-01-11T10:56:20.916Z,27.00
2019-01-11T10:58:51.320Z,27.67
2019-01-11T11:01:21.608Z,26.90
2019-01-11T11:03:52.443Z,27.67
2019-01-11T11:06:22.860Z,26.80
2019-01-11T11:08:53.348Z,26.10
2019-01-11T11:11:24.887Z,25.67
2019-01-11T11:13:55.260Z,25.70
2019-01-11T11:16:26.548Z,24.37
2019-01-11T11:18:56.893Z,22.73
2019-01-11T11:21:27.273Z,21.43
2019-01-11T11:23:57.629Z,23.67
2019-01-11T11:26:28.078Z,22.17
2019-01-11T11:28:58.506Z,22.37
2019-01-11T11:31:28.858Z,23.60
2019-01-11T11:33:59.204Z,25.40
2019-01-11T11:36:29.702Z,23.90
2019-01-11T11:39:00.310Z,23.23
2019-01-11T11:41:31.346Z,23.22
2019-01-11T11:44:01.666Z,24.00
2019-01-11T11:46:32.169Z,22.97
2019-01-11T11:49:02.502Z,23.03
2019-01-11T11:51:32.873Z,21.05
2019-01-11T11:54:03.214Z,21.77
2019-01-11T11:56:33.573Z,20.57
2019-01-11T11:59:03.902Z,19.13
2019-01-11T12:01:35.393Z,20.13
2019-01-11T12:04:05.711Z,20.20
2019-01-11T12:06:37.230Z,19.43
2019-01-11T12:09:10.167Z,18.63
2019-01-11T12:11:40.537Z,17.57
2019-01-11T12:14:10.880Z,19.13
2019-01-11T12:16:41.239Z,18.73
2019-01-11T12:19:11.600Z,16.53
2019-01-11T12:21:47.477Z,18.03
2019-01-11T12:24:13.933Z,19.87
2019-01-11T12:26:44.319Z,20.57
2019-01-11T12:29:14.923Z,21.13
2019-01-11T12:31:45.301Z,20.87
2019-01-11T12:34:15.703Z,20.40
2019-01-11T12:36:46.086Z,19.53
2019-01-11T12:39:16.415Z,17.30
2019-01-11T12:41:46.774Z,19.60
2019-01-11T12:44:17.092Z,19.63
2019-01-11T12:46:47.458Z,18.50
2019-01-11T12:49:17.807Z,19.00
2019-01-11T12:51:53.989Z,20.87
2019-01-11T12:54:22.069Z,19.80
2019-01-11T12:56:52.531Z,19.37
2019-01-11T12:59:22.881Z,21.57
2019-01-11T13:01:53.255Z,19.60
2019-01-11T13:04:23.577Z,19.27
2019-01-11T13:06:53.959Z,19.30
2019-01-11T13:09:24.288Z,19.00
2019-01-11T13:11:54.670Z,19.93
2019-01-11T13:14:25.010Z,19.50
2019-01-11T13:16:55.378Z,17.50
2019-01-11T13:19:25.720Z,19.00
2019-01-11T13:22:00.509Z,20.80
2019-01-11T13:24:28.133Z,19.13
2019-01-11T13:26:58.534Z,21.30
2019-01-11T13:29:28.853Z,17.73
2019-01-11T13:31:59.249Z,20.07
2019-01-11T13:34:29.713Z,22.47
2019-01-11T13:37:00.095Z,19.00
2019-01-11T13:39:30.442Z,21.70
2019-01-11T13:42:00.794Z,20.27
2019-01-11T13:44:32.224Z,23.10
2019-01-11T13:47:02.789Z,24.67
2019-01-11T13:49:33.138Z,20.53
2019-01-11T13:52:07.144Z,20.93
2019-01-11T13:54:35.567Z,22.07
2019-01-11T13:57:05.985Z,21.77
2019-01-11T13:59:41.516Z,23.33
2019-01-11T14:02:08.416Z,23.07
2019-01-11T14:04:38.843Z,23.97
2019-01-11T14:07:09.306Z,28.17
2019-01-11T14:09:39.753Z,31.50
2019-01-11T14:12:10.266Z,27.90
2019-01-11T14:14:40.672Z,33.80
2019-01-11T14:17:11.074Z,31.20
2019-01-11T14:19:41.579Z,31.37
2019-01-11T14:22:13.821Z,31.63
2019-01-11T14:24:44.571Z,27.70
2019-01-11T14:27:15.073Z,29.57
2019-01-11T14:29:45.575Z,29.32
2019-01-11T14:32:16.334Z,36.00
2019-01-11T14:34:46.910Z,34.40
2019-01-11T14:37:17.266Z,29.63
2019-01-11T14:39:47.977Z,35.10
2019-01-11T14:42:18.666Z,34.97
2019-01-11T14:44:49.344Z,32.20
2019-01-11T14:47:19.987Z,32.93
2019-01-11T14:50:11.027Z,32.03
2019-01-11T14:52:42.774Z,31.13
2019-01-11T14:55:13.655Z,32.97
2019-01-11T14:57:45.692Z,33.33
2019-01-11T15:00:21.025Z,33.20
2019-01-11T15:02:51.721Z,30.80
2019-01-11T15:05:22.415Z,30.10
2019-01-11T15:07:52.841Z,31.17
2019-01-11T15:10:23.240Z,28.07
2019-01-11T15:12:53.684Z,37.27
2019-01-11T15:15:25.121Z,28.87
2019-01-11T15:17:55.569Z,35.52
2019-01-11T15:20:25.920Z,30.33
2019-01-11T15:22:56.314Z,27.93
2019-01-11T15:25:26.638Z,27.77
2019-01-11T15:27:57.274Z,23.73
2019-01-11T15:30:27.624Z,23.63
2019-01-11T15:32:58.030Z,24.17
2019-01-11T15:35:28.414Z,17.87
2019-01-11T15:37:58.815Z,21.17
2019-01-11T15:40:36.278Z,19.20
2019-01-11T15:43:02.444Z,19.60
2019-01-11T15:45:32.814Z,20.63
2019-01-11T15:48:03.654Z,19.47
2019-01-11T15:50:59.268Z,17.60
2019-01-11T15:53:37.419Z,21.77
2019-01-11T15:56:10.019Z,21.60
2019-01-11T15:58:40.458Z,15.97
2019-01-11T16:01:10.809Z,22.77
2019-01-11T16:03:41.639Z,25.17
2019-01-11T16:06:31.905Z,25.47
2019-01-11T16:09:56.903Z,26.53
2019-01-11T16:12:36.066Z,27.93
2019-01-11T16:15:59.142Z,28.70
2019-01-11T16:18:31.374Z,29.47
2019-01-11T16:21:01.944Z,31.30
2019-01-11T16:23:32.341Z,33.70
2019-01-11T16:26:02.695Z,36.40
2019-01-11T16:28:33.094Z,26.77
2019-01-11T16:31:03.462Z,34.90
2019-01-11T16:33:33.900Z,37.87
2019-01-11T16:36:04.416Z,38.73
2019-01-11T16:38:34.834Z,37.27
2019-01-11T16:41:05.613Z,38.83
2019-01-11T16:43:36.021Z,42.00
2019-01-11T16:46:06.405Z,42.20
2019-01-11T16:48:36.843Z,37.70
2019-01-11T16:51:07.203Z,42.17
2019-01-11T16:53:37.621Z,41.67
2019-01-11T16:56:07.954Z,43.67
2019-01-11T16:58:38.394Z,41.53
2019-01-11T17:01:10.469Z,40.90
2019-01-11T17:03:41.038Z,41.47
2019-01-11T17:06:11.499Z,38.33
2019-01-11T17:08:43.011Z,42.73
2019-01-11T17:11:13.492Z,41.40
2019-01-11T17:13:43.939Z,36.63
2019-01-11T17:16:14.652Z,32.40
2019-01-11T17:18:45.030Z,36.00
2019-01-11T17:21:15.586Z,36.83
2019-01-11T17:23:45.922Z,36.40
2019-01-11T17:26:16.389Z,36.33
2019-01-11T17:28:46.828Z,39.33
2019-01-11T17:31:17.605Z,39.42
2019-01-11T17:33:49.728Z,40.40
2019-01-11T17:36:20.869Z,41.85
2019-01-11T17:38:51.821Z,38.37
2019-01-11T17:41:22.570Z,37.87
2019-01-11T17:43:53.567Z,38.57
2019-01-11T17:46:24.034Z,35.50
2019-01-11T17:48:55.116Z,33.87
2019-01-11T17:51:25.555Z,31.97
2019-01-11T17:53:56.111Z,33.23
2019-01-11T17:56:26.512Z,35.13
2019-01-11T17:58:57.155Z,33.47
2019-01-11T18:01:27.574Z,32.93
2019-01-11T18:03:58.902Z,28.00
2019-01-11T18:06:29.274Z,30.53
2019-01-11T18:08:59.843Z,30.50
2019-01-11T18:11:31.142Z,28.67
2019-01-11T18:14:01.546Z,28.07
2019-01-11T18:16:31.918Z,29.27
2019-01-11T18:19:02.348Z,23.63
2019-01-11T18:21:32.705Z,26.27
2019-01-11T18:24:03.111Z,25.17
2019-01-11T18:26:33.482Z,26.37
2019-01-11T18:29:04.186Z,26.23
2019-01-11T18:31:34.533Z,24.87
2019-01-11T18:34:05.343Z,24.77
2019-01-11T18:36:35.666Z,22.57
2019-01-11T18:39:09.220Z,21.07
2019-01-11T18:41:39.683Z,23.73
2019-01-11T18:44:10.079Z,26.07
2019-01-11T18:46:40.518Z,25.73
2019-01-11T18:49:12.052Z,23.00
2019-01-11T18:51:42.503Z,23.97
2019-01-11T18:54:12.932Z,23.90
2019-01-11T18:56:43.298Z,19.90
2019-01-11T18:59:13.708Z,23.43
2019-01-11T19:01:44.120Z,22.77
2019-01-11T19:04:16.385Z,21.87
2019-01-11T19:06:46.870Z,22.57
2019-01-11T19:09:17.327Z,21.87
2019-01-11T19:11:47.828Z,20.90
2019-01-11T19:14:18.184Z,21.10
2019-01-11T19:16:48.607Z,21.30
2019-01-11T19:19:18.950Z,22.73
2019-01-11T19:21:49.353Z,23.80
2019-01-11T19:24:19.716Z,23.63
2019-01-11T19:26:50.134Z,25.07
2019-01-11T19:29:20.731Z,21.47
2019-01-11T19:31:51.114Z,23.23
2019-01-11T19:34:21.476Z,25.40
2019-01-11T19:36:52.213Z,24.93
2019-01-11T19:39:22.769Z,24.33
2019-01-11T19:41:53.253Z,23.90
2019-01-11T19:44:23.608Z,25.30
2019-01-11T19:46:54.044Z,24.40
2019-01-11T19:49:24.773Z,24.30
2019-01-11T19:51:55.181Z,23.83
2019-01-11T19:54:25.533Z,23.17
2019-01-11T19:56:56.006Z,24.73
2019-01-11T19:59:26.353Z,24.00
2019-01-11T20:01:56.868Z,24.80
2019-01-11T20:04:27.253Z,24.53
2019-01-11T20:06:57.825Z,23.43
2019-01-11T20:09:28.240Z,21.53
2019-01-11T20:11:58.695Z,24.10
2019-01-11T20:14:29.432Z,22.87
2019-01-11T20:16:59.960Z,21.90
2019-01-11T20:19:30.960Z,21.95
2019-01-11T20:22:01.378Z,22.13
2019-01-11T20:24:32.438Z,24.90
2019-01-11T20:27:02.834Z,24.10
2019-01-11T20:29:33.251Z,25.13
2019-01-11T20:32:03.875Z,21.37
2019-01-11T20:34:34.255Z,24.63
2019-01-11T20:37:16.482Z,28.27
2019-01-11T20:39:47.001Z,28.37
2019-01-11T20:42:17.950Z,22.27
2019-01-11T20:44:48.871Z,29.03
2019-01-11T20:47:19.791Z,25.67
2019-01-11T20:49:50.770Z,24.73
2019-01-11T20:52:21.684Z,23.57
2019-01-11T20:54:52.640Z,24.05
2019-01-11T20:57:23.130Z,25.73
2019-01-11T20:59:53.910Z,24.87
2019-01-11T21:02:24.307Z,23.97
2019-01-11T21:04:55.112Z,25.33
2019-01-11T21:07:25.507Z,23.47
2019-01-11T21:09:56.117Z,24.70
2019-01-11T21:12:27.119Z,24.17
2019-01-11T21:14:57.608Z,22.40
2019-01-11T21:17:29.110Z,23.90
2019-01-11T21:19:59.612Z,23.90
2019-01-11T21:22:30.245Z,22.60
2019-01-11T21:25:01.309Z,23.17
2019-01-11T21:27:31.725Z,23.10
2019-01-11T21:30:02.092Z,22.53
2019-01-11T21:32:33.666Z,23.67
2019-01-11T21:35:05.207Z,24.60
2019-01-11T21:37:35.638Z,25.50
2019-01-11T21:40:07.579Z,24.63
2019-01-11T21:42:38.249Z,26.73
2019-01-11T21:45:09.140Z,26.63
2019-01-11T21:47:39.506Z,25.00
2019-01-11T21:50:15.369Z,21.67
2019-01-11T21:52:45.775Z,24.20
2019-01-11T21:55:16.138Z,22.37
2019-01-11T21:57:46.686Z,23.13
2019-01-11T22:00:22.629Z,24.67
2019-01-11T22:02:53.103Z,24.43
2019-01-11T22:05:23.460Z,26.77
2019-01-11T22:07:53.842Z,28.03
2019-01-11T22:10:24.207Z,26.47
2019-01-11T22:12:55.865Z,26.40
2019-01-11T22:15:26.194Z,22.47
2019-01-11T22:17:56.594Z,25.87
2019-01-11T22:20:27.107Z,26.80
2019-01-11T22:22:57.516Z,28.30
2019-01-11T22:25:28.406Z,27.77
2019-01-11T22:27:59.786Z,25.67
2019-01-11T22:30:31.609Z,26.07
2019-01-11T22:33:03.257Z,28.87
2019-01-11T22:35:34.154Z,24.47
2019-01-11T22:38:04.814Z,24.10
2019-01-11T22:40:36.227Z,24.77
2019-01-11T22:43:07.050Z,27.53
2019-01-11T22:45:38.074Z,25.27
2019-01-11T22:48:08.475Z,23.73
2019-01-11T22:50:38.837Z,29.63
2019-01-11T22:53:09.190Z,27.53
2019-01-11T22:55:39.495Z,27.53
2019-01-11T22:58:10.362Z,28.40
2019-01-11T23:01:07.894Z,27.97
2019-01-11T23:03:50.668Z,29.47
2019-01-11T23:07:06.614Z,29.97
2019-01-11T23:09:51.242Z,29.63
2019-01-11T23:12:41.655Z,26.47
2019-01-11T23:15:17.918Z,27.53
2019-01-11T23:18:14.365Z,27.00
2019-01-11T23:20:45.331Z,22.30
2019-01-11T23:23:16.067Z,30.37
2019-01-11T23:25:46.365Z,29.00
2019-01-11T23:28:16.858Z,28.10
2019-01-11T23:30:47.219Z,28.40
2019-01-11T23:33:17.844Z,28.27
2019-01-11T23:35:48.311Z,32.47
2019-01-11T23:38:18.775Z,30.07
2019-01-11T23:40:50.748Z,30.37
2019-01-11T23:43:21.091Z,30.57
2019-01-11T23:45:51.913Z,30.50
2019-01-11T23:48:22.486Z,29.02
2019-01-11T23:50:53.023Z,26.00
2019-01-11T23:53:23.514Z,29.70
2019-01-11T23:55:53.942Z,31.33
2019-01-11T23:58:26.853Z,30.90
